sensor_id;sensor_type;location;lat;lon;timestamp;P1;durP1;ratioP1;P2;durP2;ratioP2
27642;SDS011;15053;48.618;10.024;2023-11-18T00:01:34;9.27;;;7.28;;
27642;SDS011;15053;48.618;10.024;2023-11-18T00:04:01;9.40;;;7.45;;
27642;SDS011;15053;48.618;10.024;2023-11-18T00:06:27;9.85;;;7.40;;
27642;SDS011;15053;48.618;10.024;2023-11-18T00:08:54;8.90;;;6.28;;
27642;SDS011;15053;48.618;10.024;2023-11-18T00:11:21;7.43;;;6.63;;
27642;SDS011;15053;48.618;10.024;2023-11-18T00:13:48;9.55;;;6.70;;
27642;SDS011;15053;48.618;10.024;2023-11-18T00:16:14;10.55;;;7.70;;
27642;SDS011;15053;48.618;10.024;2023-11-18T00:18:42;11.15;;;8.35;;
27642;SDS011;15053;48.618;10.024;2023-11-18T00:21:09;11.82;;;8.82;;
27642;SDS011;15053;48.618;10.024;2023-11-18T00:23:36;12.02;;;9.73;;
27642;SDS011;15053;48.618;10.024;2023-11-18T00:26:03;12.30;;;9.02;;
27642;SDS011;15053;48.618;10.024;2023-11-18T00:28:33;13.95;;;9.50;;
27642;SDS011;15053;48.618;10.024;2023-11-18T00:31:00;12.55;;;9.05;;
27642;SDS011;15053;48.618;10.024;2023-11-18T00:33:27;15.98;;;9.63;;
27642;SDS011;15053;48.618;10.024;2023-11-18T00:35:54;14.15;;;9.88;;
27642;SDS011;15053;48.618;10.024;2023-11-18T00:38:20;10.85;;;8.00;;
27642;SDS011;15053;48.618;10.024;2023-11-18T00:40:48;9.77;;;7.72;;
27642;SDS011;15053;48.618;10.024;2023-11-18T00:43:14;11.38;;;8.82;;
27642;SDS011;15053;48.618;10.024;2023-11-18T00:45:41;11.10;;;8.13;;
27642;SDS011;15053;48.618;10.024;2023-11-18T00:48:09;10.98;;;8.57;;
27642;SDS011;15053;48.618;10.024;2023-11-18T00:50:36;11.65;;;8.65;;
27642;SDS011;15053;48.618;10.024;2023-11-18T00:53:03;13.93;;;10.10;;
27642;SDS011;15053;48.618;10.024;2023-11-18T00:55:29;14.48;;;9.85;;
27642;SDS011;15053;48.618;10.024;2023-11-18T00:57:56;13.15;;;9.98;;
27642;SDS011;15053;48.618;10.024;2023-11-18T01:00:23;13.70;;;9.57;;
27642;SDS011;15053;48.618;10.024;2023-11-18T01:02:49;13.48;;;8.85;;
27642;SDS011;15053;48.618;10.024;2023-11-18T01:05:16;12.05;;;9.05;;
27642;SDS011;15053;48.618;10.024;2023-11-18T01:07:43;13.90;;;8.95;;
27642;SDS011;15053;48.618;10.024;2023-11-18T01:10:10;12.07;;;8.93;;
27642;SDS011;15053;48.618;10.024;2023-11-18T01:12:37;12.88;;;9.18;;
27642;SDS011;15053;48.618;10.024;2023-11-18T01:15:04;13.27;;;8.77;;
27642;SDS011;15053;48.618;10.024;2023-11-18T01:17:31;15.82;;;9.27;;
27642;SDS011;15053;48.618;10.024;2023-11-18T01:19:58;11.32;;;8.48;;
27642;SDS011;15053;48.618;10.024;2023-11-18T01:22:25;12.38;;;8.10;;
27642;SDS011;15053;48.618;10.024;2023-11-18T01:24:52;12.55;;;8.82;;
27642;SDS011;15053;48.618;10.024;2023-11-18T01:27:18;13.32;;;9.82;;
27642;SDS011;15053;48.618;10.024;2023-11-18T01:29:46;17.77;;;10.82;;
27642;SDS011;15053;48.618;10.024;2023-11-18T01:32:13;15.18;;;11.05;;
27642;SDS011;15053;48.618;10.024;2023-11-18T01:34:40;17.83;;;11.80;;
27642;SDS011;15053;48.618;10.024;2023-11-18T01:37:09;16.75;;;11.63;;
27642;SDS011;15053;48.618;10.024;2023-11-18T01:39:36;23.65;;;14.00;;
27642;SDS011;15053;48.618;10.024;2023-11-18T01:42:03;21.38;;;14.30;;
27642;SDS011;15053;48.618;10.024;2023-11-18T01:44:30;15.68;;;11.13;;
27642;SDS011;15053;48.618;10.024;2023-11-18T01:46:57;22.02;;;13.40;;
27642;SDS011;15053;48.618;10.024;2023-11-18T01:49:25;20.60;;;13.38;;
27642;SDS011;15053;48.618;10.024;2023-11-18T01:51:54;24.77;;;14.10;;
27642;SDS011;15053;48.618;10.024;2023-11-18T01:54:21;21.05;;;12.73;;
27642;SDS011;15053;48.618;10.024;2023-11-18T01:56:48;20.05;;;12.88;;
27642;SDS011;15053;48.618;10.024;2023-11-18T01:59:16;19.77;;;13.40;;
27642;SDS011;15053;48.618;10.024;2023-11-18T02:04:16;21.80;;;14.05;;
27642;SDS011;15053;48.618;10.024;2023-11-18T02:06:47;21.42;;;13.50;;
27642;SDS011;15053;48.618;10.024;2023-11-18T02:09:15;22.63;;;13.07;;
27642;SDS011;15053;48.618;10.024;2023-11-18T02:11:52;21.65;;;12.30;;
27642;SDS011;15053;48.618;10.024;2023-11-18T02:14:40;23.15;;;13.60;;
27642;SDS011;15053;48.618;10.024;2023-11-18T02:17:07;19.10;;;13.18;;
27642;SDS011;15053;48.618;10.024;2023-11-18T02:19:37;19.45;;;12.35;;
27642;SDS011;15053;48.618;10.024;2023-11-18T02:22:06;19.45;;;12.95;;
27642;SDS011;15053;48.618;10.024;2023-11-18T02:24:34;17.13;;;11.68;;
27642;SDS011;15053;48.618;10.024;2023-11-18T02:27:04;14.73;;;10.38;;
27642;SDS011;15053;48.618;10.024;2023-11-18T02:29:35;17.52;;;9.77;;
27642;SDS011;15053;48.618;10.024;2023-11-18T02:35:14;19.50;;;11.27;;
27642;SDS011;15053;48.618;10.024;2023-11-18T02:37:56;14.82;;;9.27;;
27642;SDS011;15053;48.618;10.024;2023-11-18T02:42:59;15.70;;;9.10;;
27642;SDS011;15053;48.618;10.024;2023-11-18T02:45:27;9.73;;;7.40;;
27642;SDS011;15053;48.618;10.024;2023-11-18T02:47:54;9.20;;;6.22;;
27642;SDS011;15053;48.618;10.024;2023-11-18T02:50:24;8.77;;;6.22;;
27642;SDS011;15053;48.618;10.024;2023-11-18T02:52:51;9.10;;;5.40;;
27642;SDS011;15053;48.618;10.024;2023-11-18T02:55:18;8.27;;;5.80;;
27642;SDS011;15053;48.618;10.024;2023-11-18T02:57:47;9.20;;;6.13;;
27642;SDS011;15053;48.618;10.024;2023-11-18T03:00:14;8.80;;;6.13;;
27642;SDS011;15053;48.618;10.024;2023-11-18T03:02:48;8.48;;;6.05;;
27642;SDS011;15053;48.618;10.024;2023-11-18T03:05:18;10.63;;;6.85;;
27642;SDS011;15053;48.618;10.024;2023-11-18T03:07:45;8.30;;;6.00;;
27642;SDS011;15053;48.618;10.024;2023-11-18T03:10:19;10.82;;;5.95;;
27642;SDS011;15053;48.618;10.024;2023-11-18T03:12:48;9.75;;;6.53;;
27642;SDS011;15053;48.618;10.024;2023-11-18T03:15:15;10.98;;;6.80;;
27642;SDS011;15053;48.618;10.024;2023-11-18T03:17:50;9.38;;;6.35;;
27642;SDS011;15053;48.618;10.024;2023-11-18T03:20:18;11.85;;;7.35;;
27642;SDS011;15053;48.618;10.024;2023-11-18T03:22:46;10.82;;;7.00;;
27642;SDS011;15053;48.618;10.024;2023-11-18T03:25:13;10.90;;;6.93;;
27642;SDS011;15053;48.618;10.024;2023-11-18T03:27:40;11.98;;;7.40;;
27642;SDS011;15053;48.618;10.024;2023-11-18T03:30:08;9.65;;;6.72;;
27642;SDS011;15053;48.618;10.024;2023-11-18T03:32:37;8.43;;;6.05;;
27642;SDS011;15053;48.618;10.024;2023-11-18T03:35:06;9.10;;;6.22;;
27642;SDS011;15053;48.618;10.024;2023-11-18T03:37:36;9.70;;;6.40;;
27642;SDS011;15053;48.618;10.024;2023-11-18T03:40:08;9.80;;;7.03;;
27642;SDS011;15053;48.618;10.024;2023-11-18T03:42:36;12.07;;;6.63;;
27642;SDS011;15053;48.618;10.024;2023-11-18T03:45:03;11.75;;;6.68;;
27642;SDS011;15053;48.618;10.024;2023-11-18T03:47:31;12.00;;;7.55;;
27642;SDS011;15053;48.618;10.024;2023-11-18T03:49:57;11.75;;;7.60;;
27642;SDS011;15053;48.618;10.024;2023-11-18T03:52:24;11.43;;;7.28;;
27642;SDS011;15053;48.618;10.024;2023-11-18T03:54:51;10.20;;;7.32;;
27642;SDS011;15053;48.618;10.024;2023-11-18T03:57:18;11.30;;;7.05;;
27642;SDS011;15053;48.618;10.024;2023-11-18T03:59:45;10.25;;;6.75;;
27642;SDS011;15053;48.618;10.024;2023-11-18T04:02:11;10.25;;;6.82;;
27642;SDS011;15053;48.618;10.024;2023-11-18T04:04:38;13.48;;;7.18;;
27642;SDS011;15053;48.618;10.024;2023-11-18T04:07:05;10.80;;;7.32;;
27642;SDS011;15053;48.618;10.024;2023-11-18T04:09:33;10.90;;;6.90;;
27642;SDS011;15053;48.618;10.024;2023-11-18T04:11:59;11.82;;;7.65;;
27642;SDS011;15053;48.618;10.024;2023-11-18T04:14:26;8.27;;;6.25;;
27642;SDS011;15053;48.618;10.024;2023-11-18T04:16:53;11.88;;;7.07;;
27642;SDS011;15053;48.618;10.024;2023-11-18T04:19:21;10.07;;;6.65;;
27642;SDS011;15053;48.618;10.024;2023-11-18T04:21:47;11.23;;;7.32;;
27642;SDS011;15053;48.618;10.024;2023-11-18T04:24:15;11.25;;;7.32;;
27642;SDS011;15053;48.618;10.024;2023-11-18T04:26:42;9.77;;;6.78;;
27642;SDS011;15053;48.618;10.024;2023-11-18T04:29:08;10.32;;;6.47;;
27642;SDS011;15053;48.618;10.024;2023-11-18T04:31:35;13.93;;;7.75;;
27642;SDS011;15053;48.618;10.024;2023-11-18T04:34:03;14.25;;;7.60;;
27642;SDS011;15053;48.618;10.024;2023-11-18T04:36:30;11.98;;;7.32;;
27642;SDS011;15053;48.618;10.024;2023-11-18T04:39:00;10.38;;;6.68;;
27642;SDS011;15053;48.618;10.024;2023-11-18T04:41:27;9.57;;;6.00;;
27642;SDS011;15053;48.618;10.024;2023-11-18T04:43:53;9.80;;;6.32;;
27642;SDS011;15053;48.618;10.024;2023-11-18T04:46:20;9.35;;;5.75;;
27642;SDS011;15053;48.618;10.024;2023-11-18T04:48:48;10.57;;;5.85;;
27642;SDS011;15053;48.618;10.024;2023-11-18T04:51:14;8.75;;;5.75;;
27642;SDS011;15053;48.618;10.024;2023-11-18T04:53:41;9.85;;;6.13;;
27642;SDS011;15053;48.618;10.024;2023-11-18T04:56:08;9.85;;;6.15;;
27642;SDS011;15053;48.618;10.024;2023-11-18T04:58:39;10.40;;;6.57;;
27642;SDS011;15053;48.618;10.024;2023-11-18T05:01:06;7.47;;;4.90;;
27642;SDS011;15053;48.618;10.024;2023-11-18T05:03:33;9.55;;;5.78;;
27642;SDS011;15053;48.618;10.024;2023-11-18T05:05:59;9.23;;;6.72;;
27642;SDS011;15053;48.618;10.024;2023-11-18T05:08:26;10.00;;;8.75;;
27642;SDS011;15053;48.618;10.024;2023-11-18T05:10:53;10.80;;;9.05;;
27642;SDS011;15053;48.618;10.024;2023-11-18T05:13:20;7.55;;;6.13;;
27642;SDS011;15053;48.618;10.024;2023-11-18T05:15:48;11.52;;;6.43;;
27642;SDS011;15053;48.618;10.024;2023-11-18T05:18:16;8.60;;;6.43;;
27642;SDS011;15053;48.618;10.024;2023-11-18T05:20:43;10.55;;;7.63;;
27642;SDS011;15053;48.618;10.024;2023-11-18T05:23:10;7.07;;;5.53;;
27642;SDS011;15053;48.618;10.024;2023-11-18T05:25:41;6.60;;;5.03;;
27642;SDS011;15053;48.618;10.024;2023-11-18T05:28:12;9.23;;;5.53;;
27642;SDS011;15053;48.618;10.024;2023-11-18T05:30:40;7.38;;;4.78;;
27642;SDS011;15053;48.618;10.024;2023-11-18T05:33:09;6.43;;;4.78;;
27642;SDS011;15053;48.618;10.024;2023-11-18T05:35:41;8.10;;;4.68;;
27642;SDS011;15053;48.618;10.024;2023-11-18T05:38:15;6.18;;;4.10;;
27642;SDS011;15053;48.618;10.024;2023-11-18T05:40:47;5.25;;;4.03;;
27642;SDS011;15053;48.618;10.024;2023-11-18T05:43:24;5.93;;;4.28;;
27642;SDS011;15053;48.618;10.024;2023-11-18T05:46:14;6.40;;;4.22;;
27642;SDS011;15053;48.618;10.024;2023-11-18T05:48:47;9.80;;;4.45;;
27642;SDS011;15053;48.618;10.024;2023-11-18T05:51:18;5.75;;;4.18;;
27642;SDS011;15053;48.618;10.024;2023-11-18T05:53:55;8.27;;;4.17;;
27642;SDS011;15053;48.618;10.024;2023-11-18T05:56:21;8.00;;;5.60;;
27642;SDS011;15053;48.618;10.024;2023-11-18T05:58:51;10.05;;;5.65;;
27642;SDS011;15053;48.618;10.024;2023-11-18T06:01:22;16.08;;;8.32;;
27642;SDS011;15053;48.618;10.024;2023-11-18T06:03:51;38.53;;;21.25;;
27642;SDS011;15053;48.618;10.024;2023-11-18T06:06:17;41.22;;;21.63;;
27642;SDS011;15053;48.618;10.024;2023-11-18T06:08:49;31.33;;;18.05;;
27642;SDS011;15053;48.618;10.024;2023-11-18T06:11:17;19.52;;;11.93;;
27642;SDS011;15053;48.618;10.024;2023-11-18T06:13:49;13.55;;;8.35;;
27642;SDS011;15053;48.618;10.024;2023-11-18T06:16:18;7.30;;;5.20;;
27642;SDS011;15053;48.618;10.024;2023-11-18T06:18:48;5.95;;;4.32;;
27642;SDS011;15053;48.618;10.024;2023-11-18T06:21:25;7.82;;;5.10;;
27642;SDS011;15053;48.618;10.024;2023-11-18T06:24:00;6.68;;;4.63;;
27642;SDS011;15053;48.618;10.024;2023-11-18T06:26:27;6.65;;;4.88;;
27642;SDS011;15053;48.618;10.024;2023-11-18T06:28:54;6.30;;;4.60;;
27642;SDS011;15053;48.618;10.024;2023-11-18T06:31:21;7.20;;;4.47;;
27642;SDS011;15053;48.618;10.024;2023-11-18T06:33:50;6.82;;;4.80;;
27642;SDS011;15053;48.618;10.024;2023-11-18T06:36:17;6.20;;;5.13;;
27642;SDS011;15053;48.618;10.024;2023-11-18T06:38:45;7.35;;;4.68;;
27642;SDS011;15053;48.618;10.024;2023-11-18T06:41:12;6.47;;;4.85;;
27642;SDS011;15053;48.618;10.024;2023-11-18T06:43:41;7.00;;;5.05;;
27642;SDS011;15053;48.618;10.024;2023-11-18T06:46:33;8.45;;;5.55;;
27642;SDS011;15053;48.618;10.024;2023-11-18T06:49:06;8.30;;;4.90;;
27642;SDS011;15053;48.618;10.024;2023-11-18T06:51:34;8.90;;;5.43;;
27642;SDS011;15053;48.618;10.024;2023-11-18T06:54:03;9.60;;;5.70;;
27642;SDS011;15053;48.618;10.024;2023-11-18T06:56:40;9.57;;;5.57;;
27642;SDS011;15053;48.618;10.024;2023-11-18T06:59:13;7.60;;;5.38;;
27642;SDS011;15053;48.618;10.024;2023-11-18T07:01:42;7.90;;;5.78;;
27642;SDS011;15053;48.618;10.024;2023-11-18T07:04:11;9.80;;;6.22;;
27642;SDS011;15053;48.618;10.024;2023-11-18T07:06:38;8.80;;;6.20;;
27642;SDS011;15053;48.618;10.024;2023-11-18T07:09:07;7.43;;;5.35;;
27642;SDS011;15053;48.618;10.024;2023-11-18T07:11:45;7.68;;;5.80;;
27642;SDS011;15053;48.618;10.024;2023-11-18T07:14:13;9.52;;;6.43;;
27642;SDS011;15053;48.618;10.024;2023-11-18T07:16:41;8.30;;;5.82;;
27642;SDS011;15053;48.618;10.024;2023-11-18T07:19:08;7.95;;;5.80;;
27642;SDS011;15053;48.618;10.024;2023-11-18T07:21:36;7.90;;;5.63;;
27642;SDS011;15053;48.618;10.024;2023-11-18T07:24:03;12.07;;;5.75;;
27642;SDS011;15053;48.618;10.024;2023-11-18T07:26:30;80.45;;;9.90;;
27642;SDS011;15053;48.618;10.024;2023-11-18T07:28:56;71.60;;;8.52;;
27642;SDS011;15053;48.618;10.024;2023-11-18T07:31:23;410.85;;;29.42;;
27642;SDS011;15053;48.618;10.024;2023-11-18T07:33:50;211.52;;;19.10;;
27642;SDS011;15053;48.618;10.024;2023-11-18T07:36:18;213.68;;;19.25;;
27642;SDS011;15053;48.618;10.024;2023-11-18T07:38:46;228.88;;;17.73;;
27642;SDS011;15053;48.618;10.024;2023-11-18T07:41:13;202.20;;;15.93;;
27642;SDS011;15053;48.618;10.024;2023-11-18T07:43:55;23.50;;;9.85;;
27642;SDS011;15053;48.618;10.024;2023-11-18T07:46:22;23.08;;;8.43;;
27642;SDS011;15053;48.618;10.024;2023-11-18T07:48:49;23.83;;;9.15;;
27642;SDS011;15053;48.618;10.024;2023-11-18T07:51:16;28.58;;;7.47;;
27642;SDS011;15053;48.618;10.024;2023-11-18T07:53:43;88.60;;;12.43;;
27642;SDS011;15053;48.618;10.024;2023-11-18T07:56:09;88.78;;;10.80;;
27642;SDS011;15053;48.618;10.024;2023-11-18T07:58:38;33.85;;;7.85;;
27642;SDS011;15053;48.618;10.024;2023-11-18T08:01:05;27.83;;;7.43;;
27642;SDS011;15053;48.618;10.024;2023-11-18T08:03:35;16.42;;;8.18;;
27642;SDS011;15053;48.618;10.024;2023-11-18T08:06:03;11.07;;;6.40;;
27642;SDS011;15053;48.618;10.024;2023-11-18T08:08:36;15.02;;;7.78;;
27642;SDS011;15053;48.618;10.024;2023-11-18T08:11:09;10.25;;;6.88;;
27642;SDS011;15053;48.618;10.024;2023-11-18T08:13:37;10.70;;;6.68;;
27642;SDS011;15053;48.618;10.024;2023-11-18T08:16:04;8.45;;;5.95;;
27642;SDS011;15053;48.618;10.024;2023-11-18T08:18:30;10.50;;;6.05;;
27642;SDS011;15053;48.618;10.024;2023-11-18T08:20:58;7.13;;;4.97;;
27642;SDS011;15053;48.618;10.024;2023-11-18T08:23:26;6.97;;;4.85;;
27642;SDS011;15053;48.618;10.024;2023-11-18T08:25:54;6.18;;;4.15;;
27642;SDS011;15053;48.618;10.024;2023-11-18T08:28:21;5.45;;;4.63;;
27642;SDS011;15053;48.618;10.024;2023-11-18T08:30:48;5.60;;;4.47;;
27642;SDS011;15053;48.618;10.024;2023-11-18T08:33:17;5.13;;;3.95;;
27642;SDS011;15053;48.618;10.024;2023-11-18T08:35:44;7.75;;;4.55;;
27642;SDS011;15053;48.618;10.024;2023-11-18T08:38:11;6.55;;;4.82;;
27642;SDS011;15053;48.618;10.024;2023-11-18T08:40:38;5.60;;;4.45;;
27642;SDS011;15053;48.618;10.024;2023-11-18T08:43:05;5.60;;;4.30;;
27642;SDS011;15053;48.618;10.024;2023-11-18T08:45:34;6.43;;;4.95;;
27642;SDS011;15053;48.618;10.024;2023-11-18T08:48:01;5.93;;;4.50;;
27642;SDS011;15053;48.618;10.024;2023-11-18T08:50:37;12.45;;;4.88;;
27642;SDS011;15053;48.618;10.024;2023-11-18T08:53:06;6.53;;;4.63;;
27642;SDS011;15053;48.618;10.024;2023-11-18T08:55:36;6.10;;;4.57;;
27642;SDS011;15053;48.618;10.024;2023-11-18T08:58:10;6.43;;;4.38;;
27642;SDS011;15053;48.618;10.024;2023-11-18T09:00:52;6.15;;;4.93;;
27642;SDS011;15053;48.618;10.024;2023-11-18T09:03:25;11.35;;;8.30;;
27642;SDS011;15053;48.618;10.024;2023-11-18T09:06:02;8.50;;;6.18;;
27642;SDS011;15053;48.618;10.024;2023-11-18T09:08:34;14.57;;;10.60;;
27642;SDS011;15053;48.618;10.024;2023-11-18T09:11:03;24.30;;;21.52;;
27642;SDS011;15053;48.618;10.024;2023-11-18T09:13:34;8.45;;;7.53;;
27642;SDS011;15053;48.618;10.024;2023-11-18T09:16:02;8.23;;;5.13;;
27642;SDS011;15053;48.618;10.024;2023-11-18T09:18:30;8.93;;;5.13;;
27642;SDS011;15053;48.618;10.024;2023-11-18T09:20:58;5.82;;;4.55;;
27642;SDS011;15053;48.618;10.024;2023-11-18T09:23:28;10.75;;;6.38;;
27642;SDS011;15053;48.618;10.024;2023-11-18T09:25:58;7.80;;;5.47;;
27642;SDS011;15053;48.618;10.024;2023-11-18T09:28:24;6.85;;;5.40;;
27642;SDS011;15053;48.618;10.024;2023-11-18T09:30:51;6.07;;;4.72;;
27642;SDS011;15053;48.618;10.024;2023-11-18T09:33:23;5.47;;;4.60;;
27642;SDS011;15053;48.618;10.024;2023-11-18T09:35:52;5.90;;;4.40;;
27642;SDS011;15053;48.618;10.024;2023-11-18T09:38:31;6.57;;;4.60;;
27642;SDS011;15053;48.618;10.024;2023-11-18T09:41:02;7.55;;;5.30;;
27642;SDS011;15053;48.618;10.024;2023-11-18T09:43:37;7.40;;;4.85;;
27642;SDS011;15053;48.618;10.024;2023-11-18T09:46:23;6.05;;;4.20;;
27642;SDS011;15053;48.618;10.024;2023-11-18T09:48:51;4.57;;;4.15;;
27642;SDS011;15053;48.618;10.024;2023-11-18T09:51:21;8.25;;;4.88;;
27642;SDS011;15053;48.618;10.024;2023-11-18T09:53:52;4.82;;;4.22;;
27642;SDS011;15053;48.618;10.024;2023-11-18T09:56:31;5.75;;;4.15;;
27642;SDS011;15053;48.618;10.024;2023-11-18T10:01:43;7.43;;;4.38;;
27642;SDS011;15053;48.618;10.024;2023-11-18T10:04:13;5.18;;;3.50;;
27642;SDS011;15053;48.618;10.024;2023-11-18T10:06:44;4.65;;;3.45;;
27642;SDS011;15053;48.618;10.024;2023-11-18T10:09:13;6.68;;;4.05;;
27642;SDS011;15053;48.618;10.024;2023-11-18T10:11:44;5.88;;;4.80;;
27642;SDS011;15053;48.618;10.024;2023-11-18T10:14:14;6.70;;;4.68;;
27642;SDS011;15053;48.618;10.024;2023-11-18T10:16:44;5.53;;;4.45;;
27642;SDS011;15053;48.618;10.024;2023-11-18T10:19:14;5.00;;;4.30;;
27642;SDS011;15053;48.618;10.024;2023-11-18T10:21:45;7.13;;;4.47;;
27642;SDS011;15053;48.618;10.024;2023-11-18T10:24:15;7.88;;;5.50;;
27642;SDS011;15053;48.618;10.024;2023-11-18T10:26:54;8.43;;;5.13;;
27642;SDS011;15053;48.618;10.024;2023-11-18T10:29:24;10.20;;;6.30;;
27642;SDS011;15053;48.618;10.024;2023-11-18T10:32:03;8.20;;;6.18;;
27642;SDS011;15053;48.618;10.024;2023-11-18T10:34:34;8.77;;;6.47;;
27642;SDS011;15053;48.618;10.024;2023-11-18T10:37:01;9.40;;;6.70;;
27642;SDS011;15053;48.618;10.024;2023-11-18T10:39:29;8.75;;;7.22;;
27642;SDS011;15053;48.618;10.024;2023-11-18T10:42:01;9.50;;;8.00;;
27642;SDS011;15053;48.618;10.024;2023-11-18T10:44:29;11.98;;;8.50;;
27642;SDS011;15053;48.618;10.024;2023-11-18T10:46:56;10.55;;;8.15;;
27642;SDS011;15053;48.618;10.024;2023-11-18T10:49:26;11.67;;;7.73;;
27642;SDS011;15053;48.618;10.024;2023-11-18T10:51:55;10.95;;;8.15;;
27642;SDS011;15053;48.618;10.024;2023-11-18T10:54:22;11.32;;;7.32;;
27642;SDS011;15053;48.618;10.024;2023-11-18T10:56:52;11.48;;;7.68;;
27642;SDS011;15053;48.618;10.024;2023-11-18T10:59:23;12.77;;;8.65;;
27642;SDS011;15053;48.618;10.024;2023-11-18T11:01:49;9.93;;;8.05;;
27642;SDS011;15053;48.618;10.024;2023-11-18T11:04:17;10.07;;;8.20;;
27642;SDS011;15053;48.618;10.024;2023-11-18T11:06:47;10.30;;;8.35;;
27642;SDS011;15053;48.618;10.024;2023-11-18T11:09:21;15.18;;;9.38;;
27642;SDS011;15053;48.618;10.024;2023-11-18T11:14:22;9.20;;;8.20;;
27642;SDS011;15053;48.618;10.024;2023-11-18T11:17:05;15.52;;;8.52;;
27642;SDS011;15053;48.618;10.024;2023-11-18T11:25:50;11.70;;;8.55;;
27642;SDS011;15053;48.618;10.024;2023-11-18T11:28:52;11.95;;;8.25;;
27642;SDS011;15053;48.618;10.024;2023-11-18T11:34:14;12.60;;;9.18;;
27642;SDS011;15053;48.618;10.024;2023-11-18T11:36:47;10.38;;;8.10;;
27642;SDS011;15053;48.618;10.024;2023-11-18T11:39:17;13.40;;;8.60;;
27642;SDS011;15053;48.618;10.024;2023-11-18T11:41:52;11.48;;;8.73;;
27642;SDS011;15053;48.618;10.024;2023-11-18T11:44:23;15.55;;;9.68;;
27642;SDS011;15053;48.618;10.024;2023-11-18T11:47:00;16.52;;;10.25;;
27642;SDS011;15053;48.618;10.024;2023-11-18T11:49:39;13.95;;;9.20;;
27642;SDS011;15053;48.618;10.024;2023-11-18T11:52:20;16.70;;;10.30;;
27642;SDS011;15053;48.618;10.024;2023-11-18T11:55:09;16.27;;;9.73;;
27642;SDS011;15053;48.618;10.024;2023-11-18T11:57:41;15.23;;;10.18;;
27642;SDS011;15053;48.618;10.024;2023-11-18T12:00:09;17.08;;;10.73;;
27642;SDS011;15053;48.618;10.024;2023-11-18T12:02:49;13.95;;;10.13;;
27642;SDS011;15053;48.618;10.024;2023-11-18T12:05:18;16.15;;;10.82;;
27642;SDS011;15053;48.618;10.024;2023-11-18T12:07:54;16.00;;;9.57;;
27642;SDS011;15053;48.618;10.024;2023-11-18T12:10:31;15.02;;;10.18;;
27642;SDS011;15053;48.618;10.024;2023-11-18T12:13:08;14.50;;;9.80;;
27642;SDS011;15053;48.618;10.024;2023-11-18T12:15:54;17.42;;;10.27;;
27642;SDS011;15053;48.618;10.024;2023-11-18T12:18:25;15.25;;;9.80;;
27642;SDS011;15053;48.618;10.024;2023-11-18T12:20:51;18.25;;;10.32;;
27642;SDS011;15053;48.618;10.024;2023-11-18T12:23:22;15.53;;;9.87;;
27642;SDS011;15053;48.618;10.024;2023-11-18T12:25:51;21.73;;;11.05;;
27642;SDS011;15053;48.618;10.024;2023-11-18T12:28:25;20.98;;;12.10;;
27642;SDS011;15053;48.618;10.024;2023-11-18T12:30:56;18.17;;;11.07;;
27642;SDS011;15053;48.618;10.024;2023-11-18T12:33:24;21.60;;;11.65;;
27642;SDS011;15053;48.618;10.024;2023-11-18T12:42:33;19.52;;;11.85;;
27642;SDS011;15053;48.618;10.024;2023-11-18T12:48:07;23.48;;;12.63;;
27642;SDS011;15053;48.618;10.024;2023-11-18T12:50:40;22.02;;;12.00;;
27642;SDS011;15053;48.618;10.024;2023-11-18T12:53:10;17.10;;;11.10;;
27642;SDS011;15053;48.618;10.024;2023-11-18T12:55:40;17.33;;;11.50;;
27642;SDS011;15053;48.618;10.024;2023-11-18T12:58:08;22.98;;;12.48;;
27642;SDS011;15053;48.618;10.024;2023-11-18T13:00:39;19.15;;;12.27;;
27642;SDS011;15053;48.618;10.024;2023-11-18T13:03:06;21.50;;;12.35;;
27642;SDS011;15053;48.618;10.024;2023-11-18T13:05:37;22.40;;;12.73;;
27642;SDS011;15053;48.618;10.024;2023-11-18T13:08:04;19.88;;;13.23;;
27642;SDS011;15053;48.618;10.024;2023-11-18T13:10:31;21.17;;;12.60;;
27642;SDS011;15053;48.618;10.024;2023-11-18T13:12:57;19.48;;;11.88;;
27642;SDS011;15053;48.618;10.024;2023-11-18T13:15:25;17.80;;;11.48;;
27642;SDS011;15053;48.618;10.024;2023-11-18T13:20:27;21.52;;;12.65;;
27642;SDS011;15053;48.618;10.024;2023-11-18T13:22:55;21.00;;;12.25;;
27642;SDS011;15053;48.618;10.024;2023-11-18T13:25:22;20.55;;;11.98;;
27642;SDS011;15053;48.618;10.024;2023-11-18T13:27:49;19.48;;;11.85;;
27642;SDS011;15053;48.618;10.024;2023-11-18T13:30:16;17.80;;;10.85;;
27642;SDS011;15053;48.618;10.024;2023-11-18T13:32:44;20.70;;;11.98;;
27642;SDS011;15053;48.618;10.024;2023-11-18T13:35:11;19.02;;;11.48;;
27642;SDS011;15053;48.618;10.024;2023-11-18T13:37:40;24.38;;;12.93;;
27642;SDS011;15053;48.618;10.024;2023-11-18T13:40:10;21.17;;;12.27;;
27642;SDS011;15053;48.618;10.024;2023-11-18T13:42:39;20.60;;;11.95;;
27642;SDS011;15053;48.618;10.024;2023-11-18T13:45:08;23.08;;;11.55;;
27642;SDS011;15053;48.618;10.024;2023-11-18T13:47:56;25.33;;;10.93;;
27642;SDS011;15053;48.618;10.024;2023-11-18T13:50:26;25.25;;;11.90;;
27642;SDS011;15053;48.618;10.024;2023-11-18T13:52:53;21.40;;;11.30;;
27642;SDS011;15053;48.618;10.024;2023-11-18T13:55:19;24.67;;;11.82;;
27642;SDS011;15053;48.618;10.024;2023-11-18T13:57:53;24.38;;;11.50;;
27642;SDS011;15053;48.618;10.024;2023-11-18T14:00:22;21.85;;;10.93;;
27642;SDS011;15053;48.618;10.024;2023-11-18T14:02:56;23.50;;;12.02;;
27642;SDS011;15053;48.618;10.024;2023-11-18T14:05:23;22.83;;;11.60;;
27642;SDS011;15053;48.618;10.024;2023-11-18T14:07:54;28.05;;;12.82;;
27642;SDS011;15053;48.618;10.024;2023-11-18T14:10:35;26.10;;;11.55;;
27642;SDS011;15053;48.618;10.024;2023-11-18T14:13:05;21.90;;;10.07;;
27642;SDS011;15053;48.618;10.024;2023-11-18T14:15:43;22.08;;;10.82;;
27642;SDS011;15053;48.618;10.024;2023-11-18T14:18:11;22.48;;;10.50;;
27642;SDS011;15053;48.618;10.024;2023-11-18T14:20:39;20.35;;;10.20;;
27642;SDS011;15053;48.618;10.024;2023-11-18T14:23:07;17.98;;;10.05;;
27642;SDS011;15053;48.618;10.024;2023-11-18T14:25:35;18.60;;;10.25;;
27642;SDS011;15053;48.618;10.024;2023-11-18T14:28:01;16.20;;;9.82;;
27642;SDS011;15053;48.618;10.024;2023-11-18T14:30:28;19.77;;;9.52;;
27642;SDS011;15053;48.618;10.024;2023-11-18T14:32:56;18.73;;;10.02;;
27642;SDS011;15053;48.618;10.024;2023-11-18T14:35:23;22.67;;;9.75;;
27642;SDS011;15053;48.618;10.024;2023-11-18T14:37:52;16.88;;;10.73;;
27642;SDS011;15053;48.618;10.024;2023-11-18T14:40:19;18.20;;;10.10;;
27642;SDS011;15053;48.618;10.024;2023-11-18T14:42:50;16.55;;;9.57;;
27642;SDS011;15053;48.618;10.024;2023-11-18T14:45:17;16.73;;;10.05;;
27642;SDS011;15053;48.618;10.024;2023-11-18T14:47:44;15.77;;;9.02;;
27642;SDS011;15053;48.618;10.024;2023-11-18T14:50:22;13.77;;;9.35;;
27642;SDS011;15053;48.618;10.024;2023-11-18T14:52:50;17.45;;;9.80;;
27642;SDS011;15053;48.618;10.024;2023-11-18T14:55:27;14.02;;;9.07;;
27642;SDS011;15053;48.618;10.024;2023-11-18T14:57:54;17.20;;;8.88;;
27642;SDS011;15053;48.618;10.024;2023-11-18T15:00:21;20.08;;;11.88;;
27642;SDS011;15053;48.618;10.024;2023-11-18T15:02:51;15.95;;;9.57;;
27642;SDS011;15053;48.618;10.024;2023-11-18T15:05:22;17.00;;;8.80;;
27642;SDS011;15053;48.618;10.024;2023-11-18T15:07:51;13.65;;;8.45;;
27642;SDS011;15053;48.618;10.024;2023-11-18T15:10:20;16.03;;;8.53;;
27642;SDS011;15053;48.618;10.024;2023-11-18T15:12:54;15.25;;;9.32;;